createdAt,value
2022-08-25T04:58:16.555Z,100.00
2022-08-25T05:00:49.807Z,100.00
2022-08-25T05:03:19.547Z,100.00
2022-08-25T05:05:52.543Z,100.00
2022-08-25T05:08:20.283Z,100.00
2022-08-25T05:10:47.873Z,100.00
2022-08-25T05:13:15.581Z,100.00
2022-08-25T05:15:53.965Z,100.00
2022-08-25T05:18:23.326Z,100.00
2022-08-25T05:20:52.166Z,97.15
2022-08-25T05:23:24.487Z,97.42
2022-08-25T05:25:53.104Z,99.60
2022-08-25T05:28:23.324Z,97.93
2022-08-25T05:34:07.682Z,98.62
2022-08-25T05:36:36.099Z,93.69
2022-08-25T05:39:04.524Z,92.34
2022-08-25T05:41:34.026Z,92.46
2022-08-25T05:44:05.638Z,91.50
2022-08-25T05:46:36.295Z,91.06
2022-08-25T05:49:34.320Z,90.45
2022-08-25T05:52:04.750Z,90.60
2022-08-25T06:11:30.724Z,90.03
2022-08-25T06:14:01.426Z,91.15
2022-08-25T06:16:54.973Z,88.02
2022-08-25T06:19:28.111Z,88.09
2022-08-25T06:21:58.752Z,84.33
2022-08-25T06:24:30.384Z,84.41
2022-08-25T06:27:06.944Z,82.16
2022-08-25T06:29:47.534Z,80.57
2022-08-25T06:32:15.350Z,79.54
2022-08-25T06:34:42.962Z,80.64
2022-08-25T06:37:13.248Z,75.08
2022-08-25T06:39:40.969Z,77.15
2022-08-25T06:42:09.919Z,72.64
2022-08-25T06:44:37.624Z,70.96
2022-08-25T06:47:05.458Z,69.19
2022-08-25T06:49:36.030Z,59.04
2022-08-25T06:52:04.376Z,57.26
2022-08-25T06:54:31.866Z,52.72
2022-08-25T06:56:59.362Z,49.23
2022-08-25T06:59:32.186Z,45.95
2022-08-25T07:02:00.880Z,43.35
2022-08-25T07:04:31.377Z,44.93
2022-08-25T07:06:59.165Z,44.66
2022-08-25T07:09:26.657Z,42.58
2022-08-25T07:11:54.444Z,44.17
2022-08-25T07:14:22.276Z,41.36
2022-08-25T07:16:50.501Z,43.48
2022-08-25T07:19:23.043Z,42.64
2022-08-25T07:21:53.270Z,42.41
2022-08-25T07:24:21.627Z,42.43
2022-08-25T07:26:50.008Z,42.60
2022-08-25T07:29:32.204Z,42.06
2022-08-25T07:32:01.985Z,43.14
2022-08-25T07:34:52.150Z,43.15
2022-08-25T07:40:22.543Z,41.15
2022-08-25T07:42:51.938Z,39.43
2022-08-25T07:45:23.180Z,40.06
2022-08-25T07:47:52.339Z,39.93
2022-08-25T07:50:22.899Z,38.26
2022-08-25T07:52:55.252Z,36.88
2022-08-25T07:55:27.812Z,38.83
2022-08-25T07:57:57.326Z,40.27
2022-08-25T08:00:28.025Z,40.01
2022-08-25T08:02:56.648Z,39.58
2022-08-25T08:05:25.002Z,37.59
2022-08-25T08:07:53.666Z,36.49
2022-08-25T08:10:47.995Z,40.20
2022-08-25T08:13:11.115Z,38.53
2022-08-25T08:15:43.126Z,37.62
2022-08-25T08:18:11.801Z,36.62
2022-08-25T08:20:46.438Z,33.21
2022-08-25T08:23:14.900Z,36.79
2022-08-25T08:25:42.339Z,34.37
2022-08-25T08:28:10.863Z,29.31
2022-08-25T08:30:38.748Z,32.47
2022-08-25T08:33:11.591Z,38.97
2022-08-25T08:35:40.047Z,34.21
2022-08-25T08:38:14.911Z,32.73
2022-08-25T08:42:07.721Z,30.92
2022-08-25T08:44:42.126Z,35.81
2022-08-25T08:47:40.457Z,32.73
2022-08-25T08:50:23.991Z,33.05
2022-08-25T08:53:02.361Z,36.80
2022-08-25T08:55:33.947Z,34.65
2022-08-25T08:58:08.952Z,32.10
2022-08-25T09:00:52.070Z,30.93
2022-08-25T09:03:41.956Z,33.70
2022-08-25T09:06:22.487Z,36.08
2022-08-25T09:08:50.327Z,33.32
2022-08-25T09:11:59.262Z,35.49
2022-08-25T09:14:39.874Z,33.66
2022-08-25T09:17:18.264Z,29.84
2022-08-25T09:20:31.009Z,33.74
2022-08-25T09:23:09.824Z,35.42
2022-08-25T09:25:54.009Z,31.08
2022-08-25T09:28:36.694Z,28.09
2022-08-25T09:31:29.492Z,33.16
2022-08-25T09:34:03.589Z,33.11
2022-08-25T09:36:37.539Z,35.38
2022-08-25T09:39:06.713Z,38.52
2022-08-25T09:41:51.467Z,34.91
2022-08-25T09:44:32.035Z,32.52
2022-08-25T09:47:08.253Z,33.13
2022-08-25T09:49:47.273Z,35.65
2022-08-25T09:52:41.841Z,37.15
2022-08-25T09:55:09.521Z,35.82
2022-08-25T09:57:43.430Z,37.58
2022-08-25T10:00:25.271Z,36.42
2022-08-25T10:03:11.794Z,41.53
2022-08-25T10:05:59.422Z,39.32
2022-08-25T10:08:37.520Z,42.29
2022-08-25T10:11:16.559Z,39.78
2022-08-25T10:13:51.834Z,38.40
2022-08-25T10:16:25.509Z,39.13
2022-08-25T10:19:22.633Z,43.34
2022-08-25T10:22:05.618Z,39.99
2022-08-25T10:24:33.842Z,41.26
2022-08-25T10:27:16.840Z,44.46
2022-08-25T10:30:02.957Z,41.34
2022-08-25T10:32:31.133Z,40.29
2022-08-25T10:35:03.477Z,43.32
2022-08-25T10:37:52.576Z,43.43
2022-08-25T10:40:49.363Z,43.47
2022-08-25T10:43:28.718Z,43.16
2022-08-25T10:46:02.331Z,40.39
2022-08-25T10:48:56.191Z,47.75
2022-08-25T10:51:36.135Z,45.72
2022-08-25T10:54:13.715Z,44.71
2022-08-25T10:56:46.093Z,40.42
2022-08-25T10:59:17.405Z,38.72
2022-08-25T11:01:53.567Z,42.39
2022-08-25T11:04:36.507Z,42.46
2022-08-25T11:07:10.948Z,42.77
2022-08-25T11:09:41.600Z,43.86
2022-08-25T11:12:15.231Z,42.96
2022-08-25T11:14:52.109Z,42.54
2022-08-25T11:17:35.900Z,46.66
2022-08-25T11:20:15.091Z,42.09
2022-08-25T11:23:11.322Z,42.79
2022-08-25T11:25:44.002Z,51.18
2022-08-25T11:28:32.494Z,44.73
2022-08-25T11:31:02.260Z,45.42
2022-08-25T11:33:31.071Z,46.69
2022-08-25T11:36:11.321Z,42.52
2022-08-25T11:38:42.369Z,44.75
2022-08-25T11:41:21.601Z,44.03
2022-08-25T11:44:20.678Z,47.86
2022-08-25T11:47:21.165Z,44.47
2022-08-25T11:50:02.324Z,45.18
2022-08-25T11:52:46.922Z,47.93
2022-08-25T11:55:30.027Z,41.70
2022-08-25T11:58:23.530Z,46.06
2022-08-25T12:00:55.003Z,44.32
2022-08-25T12:03:34.384Z,47.18
2022-08-25T12:06:15.911Z,46.92
2022-08-25T12:09:08.030Z,48.48
2022-08-25T12:11:52.340Z,47.97
2022-08-25T12:14:22.514Z,49.02
2022-08-25T12:16:56.870Z,49.18
2022-08-25T12:19:44.253Z,47.28
2022-08-25T12:22:11.603Z,47.74
2022-08-25T12:24:48.776Z,46.30
2022-08-25T12:27:28.301Z,47.82
2022-08-25T12:30:18.631Z,46.30
2022-08-25T12:33:13.858Z,45.91
2022-08-25T12:35:57.856Z,45.64
2022-08-25T12:38:28.794Z,48.36
2022-08-25T12:41:06.826Z,46.54
2022-08-25T12:43:40.149Z,45.31
2022-08-25T12:46:21.845Z,48.00
2022-08-25T12:49:26.479Z,46.80
2022-08-25T12:52:01.886Z,46.09
2022-08-25T12:54:57.638Z,46.91
2022-08-25T12:57:50.019Z,47.69
2022-08-25T13:03:04.007Z,44.84
2022-08-25T13:05:47.949Z,44.49
2022-08-25T13:08:48.050Z,45.86
2022-08-25T13:11:40.889Z,47.31
2022-08-25T13:14:18.154Z,45.05
2022-08-25T13:17:01.374Z,45.66
2022-08-25T13:19:35.223Z,46.46
2022-08-25T13:22:19.436Z,46.05
2022-08-25T13:24:50.945Z,46.46
2022-08-25T13:27:26.642Z,46.05
2022-08-25T13:30:04.033Z,48.08
2022-08-25T13:32:36.988Z,45.51
2022-08-25T13:35:14.706Z,45.70
2022-08-25T13:37:45.150Z,46.54
2022-08-25T13:40:27.875Z,48.69
2022-08-25T13:42:59.915Z,49.01
2022-08-25T13:45:31.949Z,45.00
2022-08-25T13:47:59.540Z,46.04
2022-08-25T13:50:27.098Z,43.35
2022-08-25T13:53:11.271Z,46.14
2022-08-25T13:55:51.664Z,49.62
2022-08-25T13:58:24.651Z,43.63
2022-08-25T14:01:22.331Z,46.86
2022-08-25T14:04:22.656Z,43.69
2022-08-25T14:07:12.061Z,43.71
2022-08-25T14:09:58.229Z,45.10
2022-08-25T14:12:46.432Z,43.26
2022-08-25T14:15:16.951Z,44.29
2022-08-25T14:17:48.673Z,42.87
2022-08-25T14:20:28.959Z,45.08
2022-08-25T14:23:10.042Z,44.80
2022-08-25T14:25:42.300Z,45.08
2022-08-25T14:28:16.945Z,44.49
2022-08-25T14:30:54.419Z,45.99
2022-08-25T14:33:28.202Z,45.57
2022-08-25T14:35:58.957Z,45.08
2022-08-25T14:38:26.408Z,46.57
2022-08-25T14:40:54.763Z,45.79
2022-08-25T14:43:31.502Z,46.60
2022-08-25T14:46:03.167Z,47.39
2022-08-25T14:48:40.899Z,47.16
2022-08-25T14:51:12.052Z,45.61
2022-08-25T14:53:40.206Z,45.54
2022-08-25T14:56:10.508Z,45.57
2022-08-25T14:58:48.423Z,44.53
2022-08-25T15:01:29.397Z,49.64
2022-08-25T15:04:03.573Z,43.91
2022-08-25T15:06:31.911Z,46.09
2022-08-25T15:09:08.070Z,45.36
2022-08-25T15:11:36.528Z,46.45
2022-08-25T15:14:15.644Z,44.81
2022-08-25T15:16:47.628Z,44.96
2022-08-25T15:19:19.389Z,45.37
2022-08-25T15:21:48.168Z,44.46
2022-08-25T15:24:18.068Z,46.18
2022-08-25T15:26:59.909Z,44.02
2022-08-25T15:29:30.356Z,46.04
2022-08-25T15:32:00.088Z,44.63
2022-08-25T15:34:28.740Z,44.36
2022-08-25T15:37:07.609Z,46.02
2022-08-25T15:39:36.077Z,44.22
2022-08-25T15:42:05.421Z,46.18
2022-08-25T15:44:33.984Z,45.15
2022-08-25T15:47:03.741Z,44.29
2022-08-25T15:49:31.564Z,44.99
2022-08-25T15:51:59.961Z,44.48
2022-08-25T15:54:28.591Z,43.75
2022-08-25T15:56:58.574Z,42.42
2022-08-25T15:59:28.280Z,44.44
2022-08-25T16:01:55.897Z,43.50
2022-08-25T16:04:25.399Z,44.56
2022-08-25T16:06:54.235Z,44.08
2022-08-25T16:09:23.638Z,45.86
2022-08-25T16:11:56.108Z,44.85
2022-08-25T16:14:27.632Z,46.79
2022-08-25T16:16:58.489Z,44.87
2022-08-25T16:19:28.354Z,45.30
2022-08-25T16:21:56.409Z,44.83
2022-08-25T16:24:24.316Z,46.24
2022-08-25T16:26:52.306Z,45.76
2022-08-25T16:29:23.199Z,50.08
2022-08-25T16:31:54.873Z,47.38
2022-08-25T16:34:24.608Z,47.15
2022-08-25T16:36:56.177Z,47.48
2022-08-25T16:39:24.666Z,47.01
2022-08-25T16:41:52.748Z,49.22
2022-08-25T16:44:22.830Z,47.29
2022-08-25T16:46:54.283Z,47.65
2022-08-25T16:49:24.501Z,49.55
2022-08-25T16:51:57.181Z,49.33
2022-08-25T16:54:44.939Z,49.88
2022-08-25T16:57:12.988Z,50.60
2022-08-25T16:59:43.770Z,52.10
2022-08-25T17:02:12.248Z,52.19
2022-08-25T17:04:40.725Z,51.74
2022-08-25T17:07:08.299Z,53.81
2022-08-25T17:09:36.360Z,55.52
2022-08-25T17:12:05.496Z,53.13
2022-08-25T17:14:33.014Z,51.56
2022-08-25T17:17:00.929Z,54.16
2022-08-25T17:19:28.427Z,54.19
2022-08-25T17:21:55.980Z,55.29
2022-08-25T17:24:29.701Z,55.03
2022-08-25T17:27:00.208Z,57.77
2022-08-25T17:29:29.337Z,60.87
2022-08-25T17:31:57.596Z,57.58
2022-08-25T17:34:28.660Z,60.06
2022-08-25T17:36:57.484Z,58.32
2022-08-25T17:39:25.956Z,60.29
2022-08-25T17:41:53.895Z,60.93
2022-08-25T17:44:21.468Z,64.02
2022-08-25T17:46:49.053Z,62.17
2022-08-25T17:49:17.694Z,62.35
2022-08-25T17:51:45.431Z,62.84
2022-08-25T17:54:13.370Z,64.95
2022-08-25T17:56:41.300Z,63.79
2022-08-25T17:59:09.236Z,63.45
2022-08-25T18:01:40.132Z,64.52
2022-08-25T18:04:18.023Z,65.83
2022-08-25T18:06:48.515Z,66.33
2022-08-25T18:09:17.492Z,65.37
2022-08-25T18:11:45.977Z,63.88
2022-08-25T18:14:16.816Z,64.07
2022-08-25T18:16:45.223Z,66.41
2022-08-25T18:19:14.239Z,66.52
2022-08-25T18:21:43.431Z,67.11
2022-08-25T18:24:13.283Z,67.43
2022-08-25T18:26:40.946Z,68.36
2022-08-25T18:29:13.051Z,68.27
2022-08-25T18:31:41.801Z,67.60
2022-08-25T18:34:11.764Z,67.80
2022-08-25T18:36:40.988Z,67.24
2022-08-25T18:39:29.559Z,70.75
2022-08-25T18:42:01.542Z,70.57
2022-08-25T18:44:29.205Z,71.17
2022-08-25T18:46:56.642Z,69.76
2022-08-25T18:49:26.878Z,70.65
2022-08-25T18:51:56.451Z,69.94
2022-08-25T18:54:24.204Z,71.94
2022-08-25T18:56:53.199Z,73.14
2022-08-25T18:59:23.779Z,72.06
2022-08-25T19:01:53.927Z,73.91
2022-08-25T19:04:28.306Z,73.92
2022-08-25T19:07:01.258Z,73.39
2022-08-25T19:09:30.549Z,72.85
2022-08-25T19:11:59.141Z,71.86
2022-08-25T19:14:26.726Z,72.50
2022-08-25T19:16:54.942Z,76.18
2022-08-25T19:19:24.124Z,73.87
2022-08-25T19:21:51.805Z,75.21
2022-08-25T19:24:20.065Z,76.16
2022-08-25T19:26:50.447Z,75.69
2022-08-25T19:29:21.967Z,75.30
2022-08-25T19:31:49.671Z,75.61
2022-08-25T19:34:28.358Z,76.58
2022-08-25T19:37:01.925Z,78.20
2022-08-25T19:39:34.144Z,78.24
2022-08-25T19:42:03.268Z,76.26
2022-08-25T19:44:32.327Z,73.13
2022-08-25T19:46:59.957Z,72.65
2022-08-25T19:49:31.529Z,71.91
2022-08-25T19:52:02.203Z,71.37
2022-08-25T19:54:35.574Z,69.57
2022-08-25T19:57:05.211Z,69.18
2022-08-25T19:59:42.438Z,70.19
2022-08-25T20:02:18.056Z,69.95
2022-08-25T20:04:49.935Z,69.53
2022-08-25T20:07:23.723Z,69.15
2022-08-25T20:09:53.610Z,70.70
2022-08-25T20:12:23.673Z,68.73
2022-08-25T20:14:53.124Z,69.24
2022-08-25T20:17:24.879Z,69.58
2022-08-25T20:19:59.322Z,70.63
2022-08-25T20:22:29.395Z,70.09
2022-08-25T20:25:09.464Z,70.14
2022-08-25T20:27:44.489Z,70.71
2022-08-25T20:30:22.845Z,69.69
2022-08-25T20:32:52.163Z,69.15
2022-08-25T20:35:20.611Z,69.43
2022-08-25T20:37:56.607Z,69.60
2022-08-25T20:40:26.562Z,69.34
2022-08-25T20:42:55.695Z,69.65
2022-08-25T20:45:23.696Z,71.49
2022-08-25T20:47:51.613Z,71.01
2022-08-25T20:50:19.644Z,69.69
2022-08-25T20:52:48.582Z,71.24
2022-08-25T20:55:17.571Z,72.40
2022-08-25T20:57:46.717Z,71.31
2022-08-25T21:00:15.706Z,72.30
2022-08-25T21:02:46.227Z,71.32
2022-08-25T21:05:14.380Z,71.46
2022-08-25T21:07:42.125Z,70.84
2022-08-25T21:10:14.313Z,70.08
2022-08-25T21:12:45.256Z,69.28
2022-08-25T21:15:13.771Z,70.21
2022-08-25T21:17:50.621Z,69.30
2022-08-25T21:20:18.437Z,70.35
2022-08-25T21:22:45.865Z,69.30
2022-08-25T21:25:13.795Z,68.98
2022-08-25T21:27:41.391Z,67.99
2022-08-25T21:30:12.228Z,69.70
2022-08-25T21:32:39.861Z,67.61
2022-08-25T21:35:30.971Z,70.64
2022-08-25T21:37:59.128Z,71.37
2022-08-25T21:40:28.696Z,72.58
2022-08-25T21:42:56.144Z,71.12
2022-08-25T21:45:23.801Z,70.87
2022-08-25T21:47:51.910Z,73.64
2022-08-25T21:50:20.531Z,73.16
2022-08-25T21:52:48.345Z,73.64
2022-08-25T21:55:22.067Z,73.42
2022-08-25T21:57:50.318Z,71.41
2022-08-25T22:00:19.112Z,73.98
2022-08-25T22:02:49.642Z,73.58
2022-08-25T22:05:17.240Z,73.42
2022-08-25T22:07:45.181Z,74.70
2022-08-25T22:10:17.608Z,76.13
2022-08-25T22:12:47.462Z,81.64
2022-08-25T22:15:17.854Z,85.28
2022-08-25T22:17:48.088Z,83.72
2022-08-25T22:20:17.625Z,82.17
2022-08-25T22:22:45.084Z,82.18
2022-08-25T22:25:13.080Z,81.69
2022-08-25T22:27:40.559Z,81.96
2022-08-25T22:30:08.429Z,83.57
2022-08-25T22:32:36.116Z,86.24
2022-08-25T22:35:06.028Z,84.96
2022-08-25T22:37:35.376Z,83.11
2022-08-25T22:40:03.319Z,82.81
2022-08-25T22:42:31.475Z,85.12
2022-08-25T22:44:58.937Z,85.48
2022-08-25T22:47:26.437Z,86.84
2022-08-25T22:49:55.457Z,88.06
2022-08-25T22:52:31.975Z,89.21
2022-08-25T22:55:02.913Z,85.94
2022-08-25T22:57:30.804Z,86.66
2022-08-25T22:59:59.268Z,87.14
2022-08-25T23:02:30.152Z,87.04
2022-08-25T23:04:58.099Z,85.77
2022-08-25T23:07:29.057Z,87.02
2022-08-25T23:09:59.668Z,86.77
2022-08-25T23:12:27.127Z,87.55
2022-08-25T23:14:57.437Z,90.26
2022-08-25T23:17:26.762Z,91.27
2022-08-25T23:19:54.232Z,90.95
2022-08-25T23:22:22.681Z,89.94
2022-08-25T23:24:52.543Z,90.93
2022-08-25T23:27:22.029Z,89.53
2022-08-25T23:29:50.906Z,90.34
2022-08-25T23:32:18.719Z,89.37
2022-08-25T23:34:47.250Z,92.85
2022-08-25T23:37:18.450Z,93.24
2022-08-25T23:39:49.411Z,91.23
2022-08-25T23:42:19.357Z,91.99
2022-08-25T23:44:48.194Z,91.71
2022-08-25T23:47:17.000Z,91.40
2022-08-25T23:49:45.540Z,92.26
2022-08-25T23:52:17.131Z,92.34
2022-08-25T23:54:45.411Z,93.61
2022-08-25T23:57:13.063Z,92.06
2022-08-25T23:59:40.521Z,94.10
